sensor_id;sensor_type;location;lat;lon;timestamp;temperature;humidity
6810;DHT22;3443;48.812;9.112;2024-01-15T00:01:14;-2.00;99.90
6810;DHT22;3443;48.812;9.112;2024-01-15T00:03:39;-2.00;99.90
6810;DHT22;3443;48.812;9.112;2024-01-15T00:06:05;-2.10;99.90
6810;DHT22;3443;48.812;9.112;2024-01-15T00:08:31;-2.20;99.90
6810;DHT22;3443;48.812;9.112;2024-01-15T00:10:56;-2.20;99.90
6810;DHT22;3443;48.812;9.112;2024-01-15T00:13:22;-2.30;99.90
6810;DHT22;3443;48.812;9.112;2024-01-15T00:15:48;-2.40;99.90
6810;DHT22;3443;48.812;9.112;2024-01-15T00:18:13;-2.40;99.90
6810;DHT22;3443;48.812;9.112;2024-01-15T00:20:39;-2.50;99.90
6810;DHT22;3443;48.812;9.112;2024-01-15T00:23:04;-2.50;99.90
6810;DHT22;3443;48.812;9.112;2024-01-15T00:25:30;-2.50;99.90
6810;DHT22;3443;48.812;9.112;2024-01-15T00:27:55;-2.60;99.90
6810;DHT22;3443;48.812;9.112;2024-01-15T00:30:21;-2.60;99.90
6810;DHT22;3443;48.812;9.112;2024-01-15T00:32:46;-2.60;99.90
6810;DHT22;3443;48.812;9.112;2024-01-15T00:35:12;-2.60;99.90
6810;DHT22;3443;48.812;9.112;2024-01-15T00:37:37;-2.60;99.90
6810;DHT22;3443;48.812;9.112;2024-01-15T00:40:04;-2.70;99.90
6810;DHT22;3443;48.812;9.112;2024-01-15T00:42:30;-2.70;99.90
6810;DHT22;3443;48.812;9.112;2024-01-15T00:44:56;-2.70;99.90
6810;DHT22;3443;48.812;9.112;2024-01-15T00:47:21;-2.70;99.90
6810;DHT22;3443;48.812;9.112;2024-01-15T00:49:47;-2.70;99.90
6810;DHT22;3443;48.812;9.112;2024-01-15T00:52:12;-2.70;99.90
6810;DHT22;3443;48.812;9.112;2024-01-15T00:54:38;-2.70;99.90
6810;DHT22;3443;48.812;9.112;2024-01-15T00:57:05;-2.60;99.90
6810;DHT22;3443;48.812;9.112;2024-01-15T00:59:30;-2.50;99.90
6810;DHT22;3443;48.812;9.112;2024-01-15T01:01:56;-2.50;99.90
6810;DHT22;3443;48.812;9.112;2024-01-15T01:04:22;-2.40;99.90
6810;DHT22;3443;48.812;9.112;2024-01-15T01:06:47;-2.40;99.90
6810;DHT22;3443;48.812;9.112;2024-01-15T01:09:13;-2.30;99.90
6810;DHT22;3443;48.812;9.112;2024-01-15T01:11:39;-2.30;99.90
6810;DHT22;3443;48.812;9.112;2024-01-15T01:14:05;-2.20;99.90
6810;DHT22;3443;48.812;9.112;2024-01-15T01:16:30;-2.20;99.90
6810;DHT22;3443;48.812;9.112;2024-01-15T01:18:56;-2.20;99.90
6810;DHT22;3443;48.812;9.112;2024-01-15T01:21:22;-2.10;99.90
6810;DHT22;3443;48.812;9.112;2024-01-15T01:23:47;-2.10;99.90
6810;DHT22;3443;48.812;9.112;2024-01-15T01:26:17;-2.10;99.90
6810;DHT22;3443;48.812;9.112;2024-01-15T01:28:43;-2.00;99.90
6810;DHT22;3443;48.812;9.112;2024-01-15T01:31:08;-2.00;99.90
6810;DHT22;3443;48.812;9.112;2024-01-15T01:33:34;-2.00;99.90
6810;DHT22;3443;48.812;9.112;2024-01-15T01:35:59;-2.00;99.90
6810;DHT22;3443;48.812;9.112;2024-01-15T01:38:25;-1.90;99.90
6810;DHT22;3443;48.812;9.112;2024-01-15T01:40:50;-1.90;99.90
6810;DHT22;3443;48.812;9.112;2024-01-15T01:43:16;-1.80;99.90
6810;DHT22;3443;48.812;9.112;2024-01-15T01:45:42;-1.80;99.90
6810;DHT22;3443;48.812;9.112;2024-01-15T01:48:07;-1.80;99.90
6810;DHT22;3443;48.812;9.112;2024-01-15T01:50:33;-1.80;99.90
6810;DHT22;3443;48.812;9.112;2024-01-15T01:53:00;-1.70;99.90
6810;DHT22;3443;48.812;9.112;2024-01-15T01:55:27;-1.70;99.90
6810;DHT22;3443;48.812;9.112;2024-01-15T01:57:55;-1.80;99.90
6810;DHT22;3443;48.812;9.112;2024-01-15T02:00:21;-1.80;99.90
6810;DHT22;3443;48.812;9.112;2024-01-15T02:02:46;-1.80;99.90
6810;DHT22;3443;48.812;9.112;2024-01-15T02:05:14;-1.80;99.90
6810;DHT22;3443;48.812;9.112;2024-01-15T02:07:44;-1.70;99.90
6810;DHT22;3443;48.812;9.112;2024-01-15T02:10:10;-1.80;99.90
6810;DHT22;3443;48.812;9.112;2024-01-15T02:12:35;-1.80;99.90
6810;DHT22;3443;48.812;9.112;2024-01-15T02:15:01;-1.80;99.90
6810;DHT22;3443;48.812;9.112;2024-01-15T02:17:27;-1.80;99.90
6810;DHT22;3443;48.812;9.112;2024-01-15T02:19:52;-1.90;99.90
6810;DHT22;3443;48.812;9.112;2024-01-15T02:22:18;-1.90;99.90
6810;DHT22;3443;48.812;9.112;2024-01-15T02:24:43;-1.90;99.90
6810;DHT22;3443;48.812;9.112;2024-01-15T02:27:09;-1.90;99.90
6810;DHT22;3443;48.812;9.112;2024-01-15T02:29:35;-2.00;99.90
6810;DHT22;3443;48.812;9.112;2024-01-15T02:32:04;-1.90;99.90
6810;DHT22;3443;48.812;9.112;2024-01-15T02:34:32;-2.00;99.90
6810;DHT22;3443;48.812;9.112;2024-01-15T02:36:58;-2.00;99.90
6810;DHT22;3443;48.812;9.112;2024-01-15T02:39:23;-2.10;99.90
6810;DHT22;3443;48.812;9.112;2024-01-15T02:41:49;-2.10;99.90
6810;DHT22;3443;48.812;9.112;2024-01-15T02:44:14;-2.10;99.90
6810;DHT22;3443;48.812;9.112;2024-01-15T02:46:40;-2.10;99.90
6810;DHT22;3443;48.812;9.112;2024-01-15T02:49:05;-2.10;99.90
6810;DHT22;3443;48.812;9.112;2024-01-15T02:51:31;-2.10;99.90
6810;DHT22;3443;48.812;9.112;2024-01-15T02:53:56;-2.10;99.90
6810;DHT22;3443;48.812;9.112;2024-01-15T02:56:22;-2.00;99.90
6810;DHT22;3443;48.812;9.112;2024-01-15T02:58:47;-2.00;99.90
6810;DHT22;3443;48.812;9.112;2024-01-15T03:01:13;-2.10;99.90
6810;DHT22;3443;48.812;9.112;2024-01-15T03:03:40;-2.00;99.90
6810;DHT22;3443;48.812;9.112;2024-01-15T03:06:05;-2.00;99.90
6810;DHT22;3443;48.812;9.112;2024-01-15T03:08:32;-2.00;99.90
6810;DHT22;3443;48.812;9.112;2024-01-15T03:10:58;-2.00;99.90
6810;DHT22;3443;48.812;9.112;2024-01-15T03:13:24;-2.00;99.90
6810;DHT22;3443;48.812;9.112;2024-01-15T03:15:49;-2.10;99.90
6810;DHT22;3443;48.812;9.112;2024-01-15T03:18:15;-2.10;99.90
6810;DHT22;3443;48.812;9.112;2024-01-15T03:20:40;-2.20;99.90
6810;DHT22;3443;48.812;9.112;2024-01-15T03:23:06;-2.20;99.90
6810;DHT22;3443;48.812;9.112;2024-01-15T03:25:32;-2.20;99.90
6810;DHT22;3443;48.812;9.112;2024-01-15T03:27:57;-2.30;99.90
6810;DHT22;3443;48.812;9.112;2024-01-15T03:30:23;-2.20;99.90
6810;DHT22;3443;48.812;9.112;2024-01-15T03:32:48;-2.10;99.90
6810;DHT22;3443;48.812;9.112;2024-01-15T03:35:15;-2.00;99.90
6810;DHT22;3443;48.812;9.112;2024-01-15T03:37:40;-2.00;99.90
6810;DHT22;3443;48.812;9.112;2024-01-15T03:40:07;-2.00;99.90
6810;DHT22;3443;48.812;9.112;2024-01-15T03:42:32;-2.00;99.90
6810;DHT22;3443;48.812;9.112;2024-01-15T03:44:58;-1.90;99.90
6810;DHT22;3443;48.812;9.112;2024-01-15T03:47:23;-1.80;99.90
6810;DHT22;3443;48.812;9.112;2024-01-15T03:49:49;-1.70;99.90
6810;DHT22;3443;48.812;9.112;2024-01-15T03:52:14;-1.60;99.90
6810;DHT22;3443;48.812;9.112;2024-01-15T03:54:41;-1.50;99.90
6810;DHT22;3443;48.812;9.112;2024-01-15T03:57:07;-1.50;99.90
6810;DHT22;3443;48.812;9.112;2024-01-15T03:59:32;-1.50;99.90
6810;DHT22;3443;48.812;9.112;2024-01-15T04:01:58;-1.40;99.90
6810;DHT22;3443;48.812;9.112;2024-01-15T04:04:23;-1.40;99.90
6810;DHT22;3443;48.812;9.112;2024-01-15T04:06:49;-1.30;99.90
6810;DHT22;3443;48.812;9.112;2024-01-15T04:09:14;-1.30;99.90
6810;DHT22;3443;48.812;9.112;2024-01-15T04:11:40;-1.20;99.90
6810;DHT22;3443;48.812;9.112;2024-01-15T04:14:06;-1.20;99.90
6810;DHT22;3443;48.812;9.112;2024-01-15T04:16:31;-1.20;99.90
6810;DHT22;3443;48.812;9.112;2024-01-15T04:18:57;-1.20;99.90
6810;DHT22;3443;48.812;9.112;2024-01-15T04:21:22;-1.20;99.90
6810;DHT22;3443;48.812;9.112;2024-01-15T04:23:48;-1.20;99.90
6810;DHT22;3443;48.812;9.112;2024-01-15T04:26:13;-1.10;99.90
6810;DHT22;3443;48.812;9.112;2024-01-15T04:28:39;-1.10;99.90
6810;DHT22;3443;48.812;9.112;2024-01-15T04:31:04;-1.00;99.90
6810;DHT22;3443;48.812;9.112;2024-01-15T04:33:30;-1.00;99.90
6810;DHT22;3443;48.812;9.112;2024-01-15T04:35:55;-1.10;99.90
6810;DHT22;3443;48.812;9.112;2024-01-15T04:38:21;-1.00;99.90
6810;DHT22;3443;48.812;9.112;2024-01-15T04:40:46;-1.00;99.90
6810;DHT22;3443;48.812;9.112;2024-01-15T04:43:12;-1.00;99.90
6810;DHT22;3443;48.812;9.112;2024-01-15T04:45:37;-0.90;99.90
6810;DHT22;3443;48.812;9.112;2024-01-15T04:48:03;-0.90;99.90
6810;DHT22;3443;48.812;9.112;2024-01-15T04:50:29;-0.90;99.90
6810;DHT22;3443;48.812;9.112;2024-01-15T04:52:54;-0.90;99.90
6810;DHT22;3443;48.812;9.112;2024-01-15T04:55:20;-0.90;99.90
6810;DHT22;3443;48.812;9.112;2024-01-15T04:57:46;-0.80;99.90
6810;DHT22;3443;48.812;9.112;2024-01-15T05:00:12;-0.80;99.90
6810;DHT22;3443;48.812;9.112;2024-01-15T05:02:38;-0.80;99.90
6810;DHT22;3443;48.812;9.112;2024-01-15T05:05:04;-0.70;99.90
6810;DHT22;3443;48.812;9.112;2024-01-15T05:07:31;-0.70;99.90
6810;DHT22;3443;48.812;9.112;2024-01-15T05:09:56;-0.70;99.90
6810;DHT22;3443;48.812;9.112;2024-01-15T05:12:22;-0.70;99.90
6810;DHT22;3443;48.812;9.112;2024-01-15T05:14:47;-0.70;99.90
6810;DHT22;3443;48.812;9.112;2024-01-15T05:17:13;-0.70;99.90
6810;DHT22;3443;48.812;9.112;2024-01-15T05:19:38;-0.70;99.90
6810;DHT22;3443;48.812;9.112;2024-01-15T05:22:04;-0.70;99.90
6810;DHT22;3443;48.812;9.112;2024-01-15T05:24:30;-0.70;99.90
6810;DHT22;3443;48.812;9.112;2024-01-15T05:26:55;-0.70;99.90
6810;DHT22;3443;48.812;9.112;2024-01-15T05:29:21;-0.70;99.90
6810;DHT22;3443;48.812;9.112;2024-01-15T05:31:46;-0.70;99.90
6810;DHT22;3443;48.812;9.112;2024-01-15T05:34:12;-0.70;99.90
6810;DHT22;3443;48.812;9.112;2024-01-15T05:36:38;-0.60;99.90
6810;DHT22;3443;48.812;9.112;2024-01-15T05:39:03;-0.60;99.90
6810;DHT22;3443;48.812;9.112;2024-01-15T05:41:29;-0.60;99.90
6810;DHT22;3443;48.812;9.112;2024-01-15T05:43:54;-0.60;99.90
6810;DHT22;3443;48.812;9.112;2024-01-15T05:46:20;-0.60;99.90
6810;DHT22;3443;48.812;9.112;2024-01-15T05:48:45;-0.60;99.90
6810;DHT22;3443;48.812;9.112;2024-01-15T05:51:12;-0.60;99.90
6810;DHT22;3443;48.812;9.112;2024-01-15T05:53:37;-0.60;99.90
6810;DHT22;3443;48.812;9.112;2024-01-15T05:56:05;-0.60;99.90
6810;DHT22;3443;48.812;9.112;2024-01-15T05:58:31;-0.60;99.90
6810;DHT22;3443;48.812;9.112;2024-01-15T06:00:57;-0.60;99.90
6810;DHT22;3443;48.812;9.112;2024-01-15T06:03:22;-0.60;99.90
6810;DHT22;3443;48.812;9.112;2024-01-15T06:05:48;-0.60;99.90
6810;DHT22;3443;48.812;9.112;2024-01-15T06:08:13;-0.60;99.90
6810;DHT22;3443;48.812;9.112;2024-01-15T06:10:40;-0.60;99.90
6810;DHT22;3443;48.812;9.112;2024-01-15T06:13:05;-0.60;99.90
6810;DHT22;3443;48.812;9.112;2024-01-15T06:15:31;-0.60;99.90
6810;DHT22;3443;48.812;9.112;2024-01-15T06:17:56;-0.60;99.90
6810;DHT22;3443;48.812;9.112;2024-01-15T06:20:22;-0.60;99.90
6810;DHT22;3443;48.812;9.112;2024-01-15T06:22:47;-0.60;99.90
6810;DHT22;3443;48.812;9.112;2024-01-15T06:25:13;-0.60;99.90
6810;DHT22;3443;48.812;9.112;2024-01-15T06:27:39;-0.70;99.90
6810;DHT22;3443;48.812;9.112;2024-01-15T06:30:05;-0.60;99.90
6810;DHT22;3443;48.812;9.112;2024-01-15T06:32:30;-0.60;99.90
6810;DHT22;3443;48.812;9.112;2024-01-15T06:34:56;-0.60;99.90
6810;DHT22;3443;48.812;9.112;2024-01-15T06:37:21;-0.60;99.90
6810;DHT22;3443;48.812;9.112;2024-01-15T06:39:47;-0.60;99.90
6810;DHT22;3443;48.812;9.112;2024-01-15T06:42:13;-0.60;99.90
6810;DHT22;3443;48.812;9.112;2024-01-15T06:44:38;-0.60;99.90
6810;DHT22;3443;48.812;9.112;2024-01-15T06:47:05;-0.60;99.90
6810;DHT22;3443;48.812;9.112;2024-01-15T06:49:30;-0.60;99.90
6810;DHT22;3443;48.812;9.112;2024-01-15T06:51:56;-0.60;99.90
6810;DHT22;3443;48.812;9.112;2024-01-15T06:54:21;-0.60;99.90
6810;DHT22;3443;48.812;9.112;2024-01-15T06:56:47;-0.60;99.90
6810;DHT22;3443;48.812;9.112;2024-01-15T06:59:13;-0.60;99.90
6810;DHT22;3443;48.812;9.112;2024-01-15T07:01:38;-0.60;99.90
6810;DHT22;3443;48.812;9.112;2024-01-15T07:04:04;-0.60;99.90
6810;DHT22;3443;48.812;9.112;2024-01-15T07:06:29;-0.60;99.90
6810;DHT22;3443;48.812;9.112;2024-01-15T07:08:56;-0.60;99.90
6810;DHT22;3443;48.812;9.112;2024-01-15T07:11:21;-0.50;99.90
6810;DHT22;3443;48.812;9.112;2024-01-15T07:13:47;-0.60;99.90
6810;DHT22;3443;48.812;9.112;2024-01-15T07:16:13;-0.60;99.90
6810;DHT22;3443;48.812;9.112;2024-01-15T07:18:38;-0.60;99.90
6810;DHT22;3443;48.812;9.112;2024-01-15T07:21:04;-0.50;99.90
6810;DHT22;3443;48.812;9.112;2024-01-15T07:23:31;-0.60;99.90
6810;DHT22;3443;48.812;9.112;2024-01-15T07:25:57;-0.60;99.90
6810;DHT22;3443;48.812;9.112;2024-01-15T07:28:22;-0.60;99.90
6810;DHT22;3443;48.812;9.112;2024-01-15T07:30:48;-0.50;99.90
6810;DHT22;3443;48.812;9.112;2024-01-15T07:33:13;-0.50;99.90
6810;DHT22;3443;48.812;9.112;2024-01-15T07:35:39;-0.60;99.90
6810;DHT22;3443;48.812;9.112;2024-01-15T07:38:05;-0.50;99.90
6810;DHT22;3443;48.812;9.112;2024-01-15T07:40:30;-0.50;99.90
6810;DHT22;3443;48.812;9.112;2024-01-15T07:42:56;-0.50;99.90
6810;DHT22;3443;48.812;9.112;2024-01-15T07:45:21;-0.50;99.90
6810;DHT22;3443;48.812;9.112;2024-01-15T07:47:47;-0.50;99.90
6810;DHT22;3443;48.812;9.112;2024-01-15T07:50:13;-0.50;99.90
6810;DHT22;3443;48.812;9.112;2024-01-15T07:52:40;-0.50;99.90
6810;DHT22;3443;48.812;9.112;2024-01-15T07:55:07;-0.50;99.90
6810;DHT22;3443;48.812;9.112;2024-01-15T07:57:33;-0.50;99.90
6810;DHT22;3443;48.812;9.112;2024-01-15T07:59:58;-0.50;99.90
6810;DHT22;3443;48.812;9.112;2024-01-15T08:02:24;-0.50;99.90
6810;DHT22;3443;48.812;9.112;2024-01-15T08:04:49;-0.50;99.90
6810;DHT22;3443;48.812;9.112;2024-01-15T08:07:15;-0.50;99.90
6810;DHT22;3443;48.812;9.112;2024-01-15T08:09:40;-0.50;99.90
6810;DHT22;3443;48.812;9.112;2024-01-15T08:12:07;-0.50;99.90
6810;DHT22;3443;48.812;9.112;2024-01-15T08:14:32;-0.50;99.90
6810;DHT22;3443;48.812;9.112;2024-01-15T08:16:58;-0.40;99.90
6810;DHT22;3443;48.812;9.112;2024-01-15T08:19:24;-0.40;99.90
6810;DHT22;3443;48.812;9.112;2024-01-15T08:21:50;-0.40;99.90
6810;DHT22;3443;48.812;9.112;2024-01-15T08:24:15;-0.40;99.90
6810;DHT22;3443;48.812;9.112;2024-01-15T08:26:42;-0.30;99.90
6810;DHT22;3443;48.812;9.112;2024-01-15T08:29:08;-0.30;99.90
6810;DHT22;3443;48.812;9.112;2024-01-15T08:31:33;-0.20;99.90
6810;DHT22;3443;48.812;9.112;2024-01-15T08:34:00;-0.20;99.90
6810;DHT22;3443;48.812;9.112;2024-01-15T08:36:28;-0.10;99.90
6810;DHT22;3443;48.812;9.112;2024-01-15T08:38:56;-0.10;99.90
6810;DHT22;3443;48.812;9.112;2024-01-15T08:41:22;-0.10;99.90
6810;DHT22;3443;48.812;9.112;2024-01-15T08:43:49;-0.10;99.90
6810;DHT22;3443;48.812;9.112;2024-01-15T08:46:15;0.00;99.90
6810;DHT22;3443;48.812;9.112;2024-01-15T08:48:41;0.00;99.90
6810;DHT22;3443;48.812;9.112;2024-01-15T08:51:07;0.00;99.90
6810;DHT22;3443;48.812;9.112;2024-01-15T08:53:33;0.10;99.90
6810;DHT22;3443;48.812;9.112;2024-01-15T08:55:59;0.10;99.90
6810;DHT22;3443;48.812;9.112;2024-01-15T08:58:25;0.40;99.90
6810;DHT22;3443;48.812;9.112;2024-01-15T09:00:51;0.30;99.90
6810;DHT22;3443;48.812;9.112;2024-01-15T09:03:16;0.20;99.90
6810;DHT22;3443;48.812;9.112;2024-01-15T09:05:42;0.30;99.90
6810;DHT22;3443;48.812;9.112;2024-01-15T09:08:08;0.30;99.90
6810;DHT22;3443;48.812;9.112;2024-01-15T09:10:34;0.40;99.90
6810;DHT22;3443;48.812;9.112;2024-01-15T09:12:59;0.40;99.90
6810;DHT22;3443;48.812;9.112;2024-01-15T09:15:25;0.40;99.90
6810;DHT22;3443;48.812;9.112;2024-01-15T09:17:51;0.40;99.90
6810;DHT22;3443;48.812;9.112;2024-01-15T09:20:17;0.50;99.90
6810;DHT22;3443;48.812;9.112;2024-01-15T09:22:42;0.50;99.90
6810;DHT22;3443;48.812;9.112;2024-01-15T09:25:08;0.50;99.90
6810;DHT22;3443;48.812;9.112;2024-01-15T09:27:37;0.50;99.90
6810;DHT22;3443;48.812;9.112;2024-01-15T09:30:04;0.50;99.90
6810;DHT22;3443;48.812;9.112;2024-01-15T09:32:30;0.50;99.90
6810;DHT22;3443;48.812;9.112;2024-01-15T09:34:55;0.60;99.90
6810;DHT22;3443;48.812;9.112;2024-01-15T09:37:21;0.60;99.90
6810;DHT22;3443;48.812;9.112;2024-01-15T09:39:47;0.60;99.90
6810;DHT22;3443;48.812;9.112;2024-01-15T09:42:14;0.60;99.90
6810;DHT22;3443;48.812;9.112;2024-01-15T09:44:40;0.60;99.90
6810;DHT22;3443;48.812;9.112;2024-01-15T09:47:06;0.70;99.90
6810;DHT22;3443;48.812;9.112;2024-01-15T09:49:33;0.70;99.90
6810;DHT22;3443;48.812;9.112;2024-01-15T09:51:58;0.80;99.90
6810;DHT22;3443;48.812;9.112;2024-01-15T09:54:24;0.80;99.90
6810;DHT22;3443;48.812;9.112;2024-01-15T09:56:51;0.80;99.90
6810;DHT22;3443;48.812;9.112;2024-01-15T09:59:17;0.80;99.90
6810;DHT22;3443;48.812;9.112;2024-01-15T10:01:44;0.80;99.90
6810;DHT22;3443;48.812;9.112;2024-01-15T10:04:10;0.80;99.90
6810;DHT22;3443;48.812;9.112;2024-01-15T10:06:38;0.70;99.90
6810;DHT22;3443;48.812;9.112;2024-01-15T10:09:05;0.80;99.90
6810;DHT22;3443;48.812;9.112;2024-01-15T10:11:33;0.80;99.90
6810;DHT22;3443;48.812;9.112;2024-01-15T10:13:59;0.80;99.90
6810;DHT22;3443;48.812;9.112;2024-01-15T10:16:25;0.80;99.90
6810;DHT22;3443;48.812;9.112;2024-01-15T10:18:51;0.80;99.90
6810;DHT22;3443;48.812;9.112;2024-01-15T10:21:16;0.80;99.90
6810;DHT22;3443;48.812;9.112;2024-01-15T10:23:42;0.90;99.90
6810;DHT22;3443;48.812;9.112;2024-01-15T10:26:08;1.00;99.90
6810;DHT22;3443;48.812;9.112;2024-01-15T10:28:33;1.00;99.90
6810;DHT22;3443;48.812;9.112;2024-01-15T10:31:00;0.90;99.90
6810;DHT22;3443;48.812;9.112;2024-01-15T10:33:26;0.90;99.90
6810;DHT22;3443;48.812;9.112;2024-01-15T10:35:59;0.80;99.90
6810;DHT22;3443;48.812;9.112;2024-01-15T10:38:25;0.90;99.90
6810;DHT22;3443;48.812;9.112;2024-01-15T10:40:55;0.90;99.90
6810;DHT22;3443;48.812;9.112;2024-01-15T10:43:21;0.90;99.90
6810;DHT22;3443;48.812;9.112;2024-01-15T10:45:48;1.00;99.90
6810;DHT22;3443;48.812;9.112;2024-01-15T10:48:14;1.00;99.90
6810;DHT22;3443;48.812;9.112;2024-01-15T10:50:41;1.00;99.90
6810;DHT22;3443;48.812;9.112;2024-01-15T10:53:08;1.00;99.90
6810;DHT22;3443;48.812;9.112;2024-01-15T10:55:35;1.00;99.90
6810;DHT22;3443;48.812;9.112;2024-01-15T10:58:03;1.00;99.90
6810;DHT22;3443;48.812;9.112;2024-01-15T11:00:29;1.00;99.90
6810;DHT22;3443;48.812;9.112;2024-01-15T11:02:56;1.00;99.90
6810;DHT22;3443;48.812;9.112;2024-01-15T11:05:22;1.00;99.90
6810;DHT22;3443;48.812;9.112;2024-01-15T11:07:48;1.00;99.90
6810;DHT22;3443;48.812;9.112;2024-01-15T11:10:43;1.00;99.90
6810;DHT22;3443;48.812;9.112;2024-01-15T11:18:32;0.80;99.90
6810;DHT22;3443;48.812;9.112;2024-01-15T11:23:45;0.70;99.90
6810;DHT22;3443;48.812;9.112;2024-01-15T11:26:33;0.60;99.90
6810;DHT22;3443;48.812;9.112;2024-01-15T11:29:01;0.50;99.90
6810;DHT22;3443;48.812;9.112;2024-01-15T11:34:20;0.60;99.90
6810;DHT22;3443;48.812;9.112;2024-01-15T11:41:57;0.60;99.90
6810;DHT22;3443;48.812;9.112;2024-01-15T11:44:23;0.60;99.90
6810;DHT22;3443;48.812;9.112;2024-01-15T11:47:05;0.60;99.90
6810;DHT22;3443;48.812;9.112;2024-01-15T11:52:18;0.60;99.90
6810;DHT22;3443;48.812;9.112;2024-01-15T11:57:46;0.50;99.90
6810;DHT22;3443;48.812;9.112;2024-01-15T12:00:13;0.50;99.90
6810;DHT22;3443;48.812;9.112;2024-01-15T12:02:40;0.40;99.90
6810;DHT22;3443;48.812;9.112;2024-01-15T12:05:08;0.40;99.90
6810;DHT22;3443;48.812;9.112;2024-01-15T12:07:33;0.40;99.90
6810;DHT22;3443;48.812;9.112;2024-01-15T12:10:00;0.40;99.90
6810;DHT22;3443;48.812;9.112;2024-01-15T12:15:21;0.50;99.90
6810;DHT22;3443;48.812;9.112;2024-01-15T12:17:46;0.60;99.90
6810;DHT22;3443;48.812;9.112;2024-01-15T12:20:13;0.50;99.90
6810;DHT22;3443;48.812;9.112;2024-01-15T12:22:39;0.50;99.90
6810;DHT22;3443;48.812;9.112;2024-01-15T12:25:05;0.40;99.90
6810;DHT22;3443;48.812;9.112;2024-01-15T12:27:31;0.30;99.90
6810;DHT22;3443;48.812;9.112;2024-01-15T12:29:58;0.40;99.90
6810;DHT22;3443;48.812;9.112;2024-01-15T12:32:24;0.30;99.90
6810;DHT22;3443;48.812;9.112;2024-01-15T12:34:50;0.40;99.90
6810;DHT22;3443;48.812;9.112;2024-01-15T12:37:18;0.40;99.90
6810;DHT22;3443;48.812;9.112;2024-01-15T12:39:45;0.40;99.90
6810;DHT22;3443;48.812;9.112;2024-01-15T12:42:10;0.30;99.90
6810;DHT22;3443;48.812;9.112;2024-01-15T12:44:36;0.30;99.90
6810;DHT22;3443;48.812;9.112;2024-01-15T12:47:05;0.30;99.90
6810;DHT22;3443;48.812;9.112;2024-01-15T12:49:30;0.20;99.90
6810;DHT22;3443;48.812;9.112;2024-01-15T12:51:57;0.20;99.90
6810;DHT22;3443;48.812;9.112;2024-01-15T12:54:24;0.20;99.90
6810;DHT22;3443;48.812;9.112;2024-01-15T12:56:50;0.20;99.90
6810;DHT22;3443;48.812;9.112;2024-01-15T12:59:16;0.20;99.90
6810;DHT22;3443;48.812;9.112;2024-01-15T13:01:42;0.20;99.90
6810;DHT22;3443;48.812;9.112;2024-01-15T13:04:08;0.30;99.90
6810;DHT22;3443;48.812;9.112;2024-01-15T13:06:37;0.30;99.90
6810;DHT22;3443;48.812;9.112;2024-01-15T13:09:03;0.30;99.90
6810;DHT22;3443;48.812;9.112;2024-01-15T13:11:32;0.40;99.90
6810;DHT22;3443;48.812;9.112;2024-01-15T13:13:58;0.40;99.90
6810;DHT22;3443;48.812;9.112;2024-01-15T13:16:24;0.40;99.90
6810;DHT22;3443;48.812;9.112;2024-01-15T13:18:54;0.30;99.90
6810;DHT22;3443;48.812;9.112;2024-01-15T13:21:19;0.30;99.90
6810;DHT22;3443;48.812;9.112;2024-01-15T13:23:45;0.30;99.90
6810;DHT22;3443;48.812;9.112;2024-01-15T13:26:10;0.30;99.90
6810;DHT22;3443;48.812;9.112;2024-01-15T13:28:36;0.30;99.90
6810;DHT22;3443;48.812;9.112;2024-01-15T13:31:01;0.30;99.90
6810;DHT22;3443;48.812;9.112;2024-01-15T13:33:27;0.30;99.90
6810;DHT22;3443;48.812;9.112;2024-01-15T13:35:53;0.30;99.90
6810;DHT22;3443;48.812;9.112;2024-01-15T13:38:18;0.30;99.90
6810;DHT22;3443;48.812;9.112;2024-01-15T13:40:44;0.30;99.90
6810;DHT22;3443;48.812;9.112;2024-01-15T13:43:11;0.30;99.90
6810;DHT22;3443;48.812;9.112;2024-01-15T13:45:37;0.30;99.90
6810;DHT22;3443;48.812;9.112;2024-01-15T13:48:03;0.30;99.90
6810;DHT22;3443;48.812;9.112;2024-01-15T13:50:31;0.30;99.90
6810;DHT22;3443;48.812;9.112;2024-01-15T13:52:56;0.30;99.90
6810;DHT22;3443;48.812;9.112;2024-01-15T13:55:22;0.30;99.90
6810;DHT22;3443;48.812;9.112;2024-01-15T13:57:48;0.30;99.90
6810;DHT22;3443;48.812;9.112;2024-01-15T14:00:14;0.30;99.90
6810;DHT22;3443;48.812;9.112;2024-01-15T14:02:44;0.20;99.90
6810;DHT22;3443;48.812;9.112;2024-01-15T14:05:09;0.20;99.90
6810;DHT22;3443;48.812;9.112;2024-01-15T14:07:38;0.30;99.90
6810;DHT22;3443;48.812;9.112;2024-01-15T14:10:05;0.30;99.90
6810;DHT22;3443;48.812;9.112;2024-01-15T14:12:31;0.30;99.90
6810;DHT22;3443;48.812;9.112;2024-01-15T14:14:57;0.30;99.90
6810;DHT22;3443;48.812;9.112;2024-01-15T14:17:22;0.40;99.90
6810;DHT22;3443;48.812;9.112;2024-01-15T14:19:48;0.40;99.90
6810;DHT22;3443;48.812;9.112;2024-01-15T14:22:13;0.40;99.90
6810;DHT22;3443;48.812;9.112;2024-01-15T14:24:39;0.50;99.90
6810;DHT22;3443;48.812;9.112;2024-01-15T14:27:04;0.50;99.90
6810;DHT22;3443;48.812;9.112;2024-01-15T14:29:32;0.50;99.90
6810;DHT22;3443;48.812;9.112;2024-01-15T14:31:58;0.50;99.90
6810;DHT22;3443;48.812;9.112;2024-01-15T14:34:25;0.50;99.90
6810;DHT22;3443;48.812;9.112;2024-01-15T14:36:51;0.50;99.90
6810;DHT22;3443;48.812;9.112;2024-01-15T14:39:19;0.40;99.90
6810;DHT22;3443;48.812;9.112;2024-01-15T14:41:45;0.40;99.90
6810;DHT22;3443;48.812;9.112;2024-01-15T14:44:11;0.30;99.90
6810;DHT22;3443;48.812;9.112;2024-01-15T14:46:38;0.20;99.90
6810;DHT22;3443;48.812;9.112;2024-01-15T14:49:03;0.00;99.90
6810;DHT22;3443;48.812;9.112;2024-01-15T14:51:29;0.00;99.90
6810;DHT22;3443;48.812;9.112;2024-01-15T14:53:54;-0.10;99.90
6810;DHT22;3443;48.812;9.112;2024-01-15T14:56:20;-0.10;99.90
6810;DHT22;3443;48.812;9.112;2024-01-15T14:58:46;-0.10;99.90
6810;DHT22;3443;48.812;9.112;2024-01-15T15:01:12;-0.20;99.90
6810;DHT22;3443;48.812;9.112;2024-01-15T15:03:38;-0.20;99.90
6810;DHT22;3443;48.812;9.112;2024-01-15T15:06:04;-0.20;99.90
6810;DHT22;3443;48.812;9.112;2024-01-15T15:08:30;-0.20;99.90
6810;DHT22;3443;48.812;9.112;2024-01-15T15:10:55;-0.20;99.90
6810;DHT22;3443;48.812;9.112;2024-01-15T15:13:22;-0.20;99.90
6810;DHT22;3443;48.812;9.112;2024-01-15T15:15:48;-0.10;99.90
6810;DHT22;3443;48.812;9.112;2024-01-15T15:18:14;-0.10;99.90
6810;DHT22;3443;48.812;9.112;2024-01-15T15:20:39;-0.10;99.90
6810;DHT22;3443;48.812;9.112;2024-01-15T15:23:05;-0.10;99.90
6810;DHT22;3443;48.812;9.112;2024-01-15T15:25:34;-0.10;99.90
6810;DHT22;3443;48.812;9.112;2024-01-15T15:28:01;-0.10;99.90
6810;DHT22;3443;48.812;9.112;2024-01-15T15:30:26;-0.10;99.90
6810;DHT22;3443;48.812;9.112;2024-01-15T15:32:52;0.00;99.90
6810;DHT22;3443;48.812;9.112;2024-01-15T15:35:18;0.00;99.90
6810;DHT22;3443;48.812;9.112;2024-01-15T15:37:43;0.00;99.90
6810;DHT22;3443;48.812;9.112;2024-01-15T15:40:09;0.00;99.90
6810;DHT22;3443;48.812;9.112;2024-01-15T15:42:36;0.00;99.90
6810;DHT22;3443;48.812;9.112;2024-01-15T15:45:03;0.00;99.90
6810;DHT22;3443;48.812;9.112;2024-01-15T15:47:28;-0.10;99.90
6810;DHT22;3443;48.812;9.112;2024-01-15T15:49:54;-0.10;99.90
6810;DHT22;3443;48.812;9.112;2024-01-15T15:52:19;-0.10;99.90
6810;DHT22;3443;48.812;9.112;2024-01-15T15:54:45;-0.10;99.90
6810;DHT22;3443;48.812;9.112;2024-01-15T15:57:11;-0.10;99.90
6810;DHT22;3443;48.812;9.112;2024-01-15T15:59:36;-0.10;99.90
6810;DHT22;3443;48.812;9.112;2024-01-15T16:02:02;-0.10;99.90
6810;DHT22;3443;48.812;9.112;2024-01-15T16:04:28;-0.10;99.90
6810;DHT22;3443;48.812;9.112;2024-01-15T16:06:54;-0.10;99.90
6810;DHT22;3443;48.812;9.112;2024-01-15T16:09:19;-0.20;99.90
6810;DHT22;3443;48.812;9.112;2024-01-15T16:11:45;-0.20;99.90
6810;DHT22;3443;48.812;9.112;2024-01-15T16:14:11;-0.20;99.90
6810;DHT22;3443;48.812;9.112;2024-01-15T16:16:36;-0.20;99.90
6810;DHT22;3443;48.812;9.112;2024-01-15T16:19:02;-0.20;99.90
6810;DHT22;3443;48.812;9.112;2024-01-15T16:21:28;-0.20;99.90
6810;DHT22;3443;48.812;9.112;2024-01-15T16:23:55;-0.20;99.90